Aeroporto :
LOGIN :

Iscrizione | Disclaimer

   EN    FR    IT 

 










Sommario :    VFR   VFR Marginale   IFR   IFR Intensivo   IFR Molto Intensivo
Visibilità : 
Base nubi : 
>= 8 km
>= 3000ft
5 / 8 km
1000 / 3000 ft
1500m / 5 km
500 / 1000 ft
800 / 1500m
200 / 500 ft
< 800m
< 200 ft
Simboli :   Temporali  Nebbia  Neve Forte  Precipitazioni Forti  Vento > 20 kt
SIGMETs :   Varie  Temporali  Ghiacco  Turbolenza  Onda orograficha  Ceneri Vulcaniche






- Altitudine del aeroporto : 1247 ft
- Codice IATA : PRG


LKPR - Praha Ruzyne

ULTIMO METAR :
  • 281600Z 35008KT 9999 FEW042 16/13 Q1022 NOSIG

METARs OBSOLETI :
  • 281530Z 34008KT 9999 SCT040 17/13 Q1021 NOSIG
  • 281500Z 35008KT 320V020 9999 FEW040 18/13 Q1021 NOSIG
  • 281430Z 34009KT 310V010 9999 FEW021 18/14 Q1021 NOSIG
  • 281400Z 33008KT 290V360 9999 FEW021 18/14 Q1022 NOSIG
  • 281330Z 33009KT 9999 FEW030 19/14 Q1021 NOSIG

TAF TAF LKPR
Valido dal 28 a 12 ore il 29 a 18 ore UTC


281100Z 2812/2918 36008KT 9999 SCT030
PROB30
TEMPO 2812/2816 7000 SHRA BKN027TCU
BECMG 2823/2901 VRB02KT 3000 BR BKN015
TEMPO 2901/2907 0500 FG OVC001
BECMG 2907/2909 21010KT 9999 BKN027
TEMPO 2912/2917 7000 -RA BKN013



MetMap, La meteo Aeronautica in un colpo d'occhio ! - Copyright ORBIFLY Dicembre 2007 - Disclaimer

ORBIFLY MET'MAP TEAM :

Programmazione e sviluppo : Alexandra Zaïnal
Concezione : Baudouin d'Aumeries
Aiuto per la programmazione : Marc-Olivier Méhu
Supporto tecnico e logistico : Manuel Goepfert
Aiuto per la traduzione : Arnaldo La Scala

Contatto : metmap@orbifly.com




FONTI E CREDITI :

   NOAA